Time;durP1;ratioP1;P1;durP2;ratioP2;P2;SDS_P1;SDS_P2;PMS_P1;PMS_P2;Temp;Humidity;BMP_temperature;BMP_pressure;BME280_temperature;BME280_humidity;BME280_pressure;Samples;Min_cycle;Max_cycle;Signal;HPM_P1;HPM_P2
2021/06/07 00:01:25;;;;;;;5.37;3.53;;;19.80;54.90;;;;;;5030533;28;20451;-48
2021/06/07 00:03:52;;;;;;;4.67;3.70;;;19.90;55.10;;;;;;5030747;28;20468;-48
2021/06/07 00:06:19;;;;;;;5.43;3.43;;;19.90;55.30;;;;;;5030766;28;20440;-48
2021/06/07 00:08:47;;;;;;;4.00;3.57;;;19.70;55.40;;;;;;5030297;28;20537;-48
2021/06/07 00:11:14;;;;;;;4.40;3.60;;;19.70;56.00;;;;;;5030332;28;20491;-48
2021/06/07 00:13:43;;;;;;;5.10;3.80;;;19.60;56.10;;;;;;5030580;28;20443;-48
2021/06/07 00:16:10;;;;;;;4.40;3.87;;;19.60;56.60;;;;;;5030523;28;20443;-48
2021/06/07 00:18:36;;;;;;;4.53;3.67;;;19.40;56.60;;;;;;5030281;28;20439;-48
2021/06/07 00:21:06;;;;;;;6.83;4.03;;;19.30;56.80;;;;;;5030584;28;20453;-48
2021/06/07 00:23:32;;;;;;;3.60;3.30;;;19.80;57.20;;;;;;5030452;28;20435;-48
2021/06/07 00:26:00;;;;;;;7.30;4.23;;;19.50;56.90;;;;;;5030618;28;20767;-49
2021/06/07 00:28:27;;;;;;;4.40;3.80;;;19.70;57.30;;;;;;5030074;28;20844;-48
2021/06/07 00:30:53;;;;;;;4.97;4.03;;;19.60;57.40;;;;;;5030217;28;20483;-49
2021/06/07 00:33:19;;;;;;;5.00;3.60;;;19.50;57.80;;;;;;5030430;28;20432;-48
2021/06/07 00:35:45;;;;;;;6.70;4.00;;;19.30;58.20;;;;;;5030198;28;20441;-48
2021/06/07 00:38:12;;;;;;;5.50;3.87;;;19.40;58.50;;;;;;5029829;28;20522;-48
2021/06/07 00:40:39;;;;;;;5.00;3.90;;;19.20;58.70;;;;;;5030288;28;20516;-48
2021/06/07 00:43:07;;;;;;;4.43;3.97;;;19.40;59.10;;;;;;5030288;28;20446;-48
2021/06/07 00:45:37;;;;;;;5.23;4.70;;;19.10;59.00;;;;;;5030204;28;21027;-48
2021/06/07 00:48:05;;;;;;;8.33;3.87;;;19.00;59.00;;;;;;5029979;28;20526;-48
2021/06/07 00:50:37;;;;;;;5.73;4.40;;;19.10;59.00;;;;;;5029728;28;20487;-48
2021/06/07 00:53:06;;;;;;;6.07;3.73;;;19.00;59.10;;;;;;5030362;28;20430;-48
2021/06/07 00:55:37;;;;;;;4.20;3.80;;;19.00;59.10;;;;;;5030208;28;20442;-48
2021/06/07 00:58:06;;;;;;;6.30;3.57;;;19.30;59.50;;;;;;5029849;28;20515;-48
2021/06/07 01:00:34;;;;;;;5.70;3.63;;;18.80;59.20;;;;;;5029903;28;20549;-48
2021/06/07 01:03:01;;;;;;;4.23;3.80;;;18.90;59.40;;;;;;5031028;28;20454;-49
2021/06/07 01:05:28;;;;;;;4.20;3.90;;;18.90;59.50;;;;;;5033514;28;20553;-48
2021/06/07 01:07:55;;;;;;;4.70;4.30;;;18.90;59.60;;;;;;5033354;28;20439;-48
2021/06/07 01:10:22;;;;;;;4.67;4.13;;;18.70;59.50;;;;;;5033036;28;20479;-48
2021/06/07 01:12:49;;;;;;;4.87;4.43;;;18.70;59.70;;;;;;5033289;28;20943;-48
2021/06/07 01:15:16;;;;;;;4.93;3.83;;;18.70;59.70;;;;;;5031950;28;20455;-48
2021/06/07 01:17:44;;;;;;;8.83;4.10;;;18.70;59.90;;;;;;5033201;28;20821;-48
2021/06/07 01:20:14;;;;;;;4.83;3.97;;;18.60;59.80;;;;;;5032715;28;20491;-48
2021/06/07 01:22:41;;;;;;;5.40;3.60;;;18.70;60.20;;;;;;5033507;28;20504;-48
2021/06/07 01:25:12;;;;;;;5.87;3.97;;;18.20;59.80;;;;;;5033089;28;20435;-48
2021/06/07 01:27:38;;;;;;;4.93;3.60;;;18.60;60.50;;;;;;5033073;28;20434;-48
2021/06/07 01:30:10;;;;;;;5.43;4.57;;;18.90;61.00;;;;;;5032965;28;20488;-49
2021/06/07 01:32:36;;;;;;;4.83;4.40;;;18.10;60.90;;;;;;5033068;28;20431;-49
2021/06/07 01:35:04;;;;;;;4.83;4.43;;;18.50;60.70;;;;;;5033036;28;20543;-48
2021/06/07 01:37:31;;;;;;;9.73;4.60;;;18.70;61.30;;;;;;5033017;28;20939;-48
2021/06/07 01:39:58;;;;;;;6.00;4.27;;;18.10;60.90;;;;;;5032656;28;20454;-48
2021/06/07 01:42:25;;;;;;;4.63;3.77;;;18.40;61.50;;;;;;5033388;28;20438;-48
2021/06/07 01:44:51;;;;;;;5.83;4.47;;;18.50;61.80;;;;;;5032868;28;20444;-48
2021/06/07 01:47:17;;;;;;;4.57;4.10;;;18.30;61.70;;;;;;5033027;28;20442;-48
2021/06/07 01:49:44;;;;;;;4.80;4.20;;;18.20;62.00;;;;;;5032007;28;20473;-48
2021/06/07 01:52:10;;;;;;;5.10;4.07;;;18.40;62.40;;;;;;5032833;28;20957;-48
2021/06/07 01:54:37;;;;;;;7.60;4.20;;;18.30;62.60;;;;;;5032845;28;20437;-48
2021/06/07 01:57:06;;;;;;;5.63;4.70;;;18.30;62.90;;;;;;5032767;28;20430;-48
2021/06/07 01:59:32;;;;;;;5.50;4.60;;;18.10;63.00;;;;;;5032097;28;20543;-48
2021/06/07 02:01:58;;;;;;;6.77;4.23;;;18.10;62.90;;;;;;5032616;28;20429;-49
2021/06/07 02:04:24;;;;;;;4.83;4.17;;;18.00;63.20;;;;;;5032629;28;20449;-48
2021/06/07 02:06:51;;;;;;;5.13;4.63;;;18.00;63.40;;;;;;5032499;28;20442;-48
2021/06/07 02:09:17;;;;;;;10.37;4.43;;;17.90;63.80;;;;;;5032050;28;20457;-48
2021/06/07 02:11:43;;;;;;;4.53;4.13;;;17.80;63.80;;;;;;5032341;28;20476;-48
2021/06/07 02:14:10;;;;;;;6.10;5.07;;;18.00;64.60;;;;;;5032058;28;20458;-49
2021/06/07 02:16:38;;;;;;;4.60;3.90;;;17.80;65.00;;;;;;5032209;28;20540;-49
2021/06/07 02:19:07;;;;;;;4.80;4.23;;;17.40;64.70;;;;;;5031808;28;20580;-49
2021/06/07 02:21:34;;;;;;;5.30;4.67;;;17.80;65.40;;;;;;5030544;28;20527;-49
2021/06/07 02:24:03;;;;;;;5.87;5.37;;;17.50;65.40;;;;;;5032058;28;20500;-49
2021/06/07 02:26:29;;;;;;;4.77;4.37;;;17.60;65.90;;;;;;5032028;28;20794;-49
2021/06/07 02:28:59;;;;;;;5.40;4.57;;;17.60;66.00;;;;;;5031540;28;20807;-48
2021/06/07 02:31:27;;;;;;;6.67;4.90;;;17.40;66.10;;;;;;5030479;28;20483;-49
2021/06/07 02:33:56;;;;;;;8.87;4.23;;;17.40;66.90;;;;;;5031220;28;20429;-49
2021/06/07 02:36:25;;;;;;;9.03;4.40;;;17.30;66.70;;;;;;5031633;28;20536;-48
2021/06/07 02:38:52;;;;;;;4.73;4.27;;;17.50;67.30;;;;;;5031207;28;20446;-49
2021/06/07 02:41:19;;;;;;;7.23;5.00;;;17.30;67.20;;;;;;5031428;28;20441;-49
2021/06/07 02:43:45;;;;;;;7.77;4.47;;;17.30;67.30;;;;;;5031741;28;20788;-49
2021/06/07 02:46:12;;;;;;;5.50;4.60;;;17.30;67.50;;;;;;5031430;28;20907;-49
2021/06/07 02:48:39;;;;;;;4.70;4.30;;;17.30;68.00;;;;;;5031120;28;20531;-50
2021/06/07 02:51:06;;;;;;;4.87;4.47;;;17.20;68.50;;;;;;5031289;28;20485;-48
2021/06/07 02:53:33;;;;;;;4.90;4.40;;;16.90;68.30;;;;;;5030113;28;20557;-48
2021/06/07 02:55:59;;;;;;;5.00;4.50;;;17.10;68.60;;;;;;5031538;28;20491;-48
2021/06/07 02:58:25;;;;;;;6.03;4.97;;;17.10;68.90;;;;;;5031081;28;20435;-48
2021/06/07 03:00:54;;;;;;;10.80;4.67;;;17.10;69.30;;;;;;5031313;28;20453;-48
2021/06/07 03:03:20;;;;;;;5.30;4.30;;;17.20;69.50;;;;;;5031262;28;20806;-48
2021/06/07 03:05:49;;;;;;;5.53;4.83;;;17.10;69.70;;;;;;5031287;28;20445;-48
2021/06/07 03:08:19;;;;;;;5.67;5.17;;;17.30;70.00;;;;;;5030980;28;20430;-48
2021/06/07 03:10:49;;;;;;;5.13;4.63;;;17.10;70.10;;;;;;5031094;28;20549;-48
2021/06/07 03:13:16;;;;;;;6.27;5.17;;;17.00;70.20;;;;;;5031203;28;20442;-48
2021/06/07 03:15:42;;;;;;;5.70;5.20;;;17.00;70.30;;;;;;5030817;28;20452;-48
2021/06/07 03:18:09;;;;;;;5.60;4.73;;;17.20;70.60;;;;;;5030576;28;20435;-48
2021/06/07 03:20:36;;;;;;;6.83;4.80;;;17.10;70.70;;;;;;5030638;28;20486;-48
2021/06/07 03:23:06;;;;;;;5.97;4.93;;;17.00;70.60;;;;;;5030936;28;20931;-48
2021/06/07 03:25:33;;;;;;;7.93;4.90;;;17.00;70.60;;;;;;5029017;28;20492;-48
2021/06/07 03:28:00;;;;;;;11.37;4.93;;;16.90;70.80;;;;;;5030783;28;20452;-48
2021/06/07 03:30:26;;;;;;;5.60;5.10;;;17.00;70.90;;;;;;5030871;28;20472;-48
2021/06/07 03:32:53;;;;;;;7.53;5.23;;;17.10;71.00;;;;;;5033051;28;20901;-48
2021/06/07 03:35:21;;;;;;;6.87;5.07;;;17.10;71.20;;;;;;5030499;28;20451;-48
2021/06/07 03:37:48;;;;;;;6.97;5.60;;;17.10;71.20;;;;;;5031102;28;20762;-48
2021/06/07 03:40:18;;;;;;;6.10;4.77;;;17.00;71.20;;;;;;5030567;28;20444;-48
2021/06/07 03:42:45;;;;;;;6.07;5.10;;;17.10;71.40;;;;;;5030750;28;20436;-48
2021/06/07 03:45:14;;;;;;;6.50;5.40;;;17.10;71.30;;;;;;5030831;28;20440;-48
2021/06/07 03:47:40;;;;;;;9.90;5.87;;;17.10;71.40;;;;;;5030828;28;20484;-48
2021/06/07 03:50:09;;;;;;;7.03;5.23;;;17.30;71.80;;;;;;5030332;28;20490;-48
2021/06/07 03:52:35;;;;;;;8.07;5.03;;;17.10;71.50;;;;;;5030667;28;20471;-49
2021/06/07 03:55:02;;;;;;;8.43;5.40;;;16.90;71.50;;;;;;5030999;28;20493;-49
2021/06/07 03:57:30;;;;;;;7.23;5.37;;;17.30;72.20;;;;;;5030817;28;20439;-48
2021/06/07 03:59:56;;;;;;;5.67;4.97;;;17.00;71.80;;;;;;5030773;28;20524;-49
2021/06/07 04:02:23;;;;;;;8.40;5.57;;;17.40;72.30;;;;;;5031103;28;20914;-48
2021/06/07 04:04:49;;;;;;;7.40;5.50;;;17.40;72.10;;;;;;5030731;28;20454;-49
2021/06/07 04:07:15;;;;;;;7.00;4.93;;;17.90;72.50;;;;;;5030500;28;20778;-48
2021/06/07 04:09:42;;;;;;;6.17;5.37;;;17.60;72.00;;;;;;5030801;28;20472;-49
2021/06/07 04:12:09;;;;;;;5.90;5.27;;;17.60;72.00;;;;;;5030468;28;20504;-49
2021/06/07 04:14:37;;;;;;;5.27;4.77;;;17.60;71.90;;;;;;5030483;28;20442;-48
2021/06/07 04:17:04;;;;;;;7.80;5.77;;;17.30;71.30;;;;;;5030386;28;20442;-49
2021/06/07 04:19:30;;;;;;;10.43;5.23;;;17.80;72.50;;;;;;5029981;28;20503;-48
2021/06/07 04:21:56;;;;;;;5.50;4.60;;;17.80;71.40;;;;;;5030298;28;20434;-49
2021/06/07 04:24:22;;;;;;;8.13;6.30;;;18.20;71.40;;;;;;5030353;28;20429;-49
2021/06/07 04:26:48;;;;;;;5.60;5.10;;;18.30;71.30;;;;;;5030217;28;20488;-49
2021/06/07 04:29:15;;;;;;;6.10;5.60;;;18.10;70.90;;;;;;5029808;28;20971;-49
2021/06/07 04:31:42;;;;;;;5.87;5.23;;;18.30;70.70;;;;;;5029950;28;20589;-48
2021/06/07 04:34:09;;;;;;;10.03;5.30;;;18.40;70.50;;;;;;5030278;28;20446;-49
2021/06/07 04:36:35;;;;;;;6.17;4.77;;;18.50;70.30;;;;;;5031650;28;20542;-48
2021/06/07 04:39:02;;;;;;;5.87;4.47;;;18.50;70.80;;;;;;5033285;28;20788;-48
2021/06/07 04:41:28;;;;;;;7.57;5.03;;;18.30;69.60;;;;;;5034190;28;20438;-49
2021/06/07 04:43:55;;;;;;;7.90;4.97;;;18.60;69.80;;;;;;5034325;28;20429;-49
2021/06/07 04:46:21;;;;;;;5.43;4.67;;;18.90;69.90;;;;;;5033948;28;20439;-49
2021/06/07 04:48:49;;;;;;;5.50;4.47;;;18.10;69.00;;;;;;5033102;28;20832;-49
2021/06/07 04:51:15;;;;;;;5.23;4.47;;;18.50;69.30;;;;;;5032764;28;20488;-48
2021/06/07 04:53:41;;;;;;;12.10;6.10;;;18.70;69.50;;;;;;5033776;28;20452;-48
2021/06/07 04:56:08;;;;;;;6.13;5.13;;;18.70;69.40;;;;;;5033331;28;20821;-48
2021/06/07 04:58:34;;;;;;;7.90;5.03;;;18.40;68.70;;;;;;5033097;28;20954;-48
2021/06/07 05:01:04;;;;;;;6.80;4.80;;;18.90;68.80;;;;;;5033230;28;20457;-48
2021/06/07 05:03:30;;;;;;;6.33;5.37;;;18.70;68.30;;;;;;5033225;28;20604;-48
2021/06/07 05:06:00;;;;;;;5.70;4.93;;;19.10;68.60;;;;;;5033123;28;20528;-48
2021/06/07 05:08:27;;;;;;;9.03;4.93;;;18.80;68.10;;;;;;5032791;28;20526;-48
2021/06/07 05:10:54;;;;;;;5.33;4.23;;;19.10;68.20;;;;;;5033029;28;20483;-48
2021/06/07 05:13:21;;;;;;;7.30;5.00;;;19.10;67.70;;;;;;5032798;28;20473;-48
2021/06/07 05:15:48;;;;;;;8.97;5.50;;;19.00;67.50;;;;;;5032870;28;20938;-48
2021/06/07 05:18:14;;;;;;;8.00;4.20;;;19.40;67.60;;;;;;5032582;28;20435;-47
2021/06/07 05:20:41;;;;;;;8.03;4.60;;;19.30;67.10;;;;;;5032644;28;20470;-49
2021/06/07 05:23:09;;;;;;;5.17;4.67;;;19.60;67.20;;;;;;5032736;28;20434;-48
2021/06/07 05:25:36;;;;;;;10.57;6.20;;;19.70;66.80;;;;;;5032758;28;20477;-49
2021/06/07 05:28:06;;;;;;;5.10;4.27;;;19.70;66.60;;;;;;5032617;28;20434;-49
2021/06/07 05:30:32;;;;;;;7.03;4.30;;;20.00;66.40;;;;;;5032441;28;20505;-49
2021/06/07 05:32:59;;;;;;;4.57;3.50;;;19.80;66.10;;;;;;5030862;28;20465;-48
2021/06/07 05:35:28;;;;;;;4.90;4.27;;;19.90;65.10;;;;;;5032173;28;20439;-48
2021/06/07 05:37:57;;;;;;;19.43;4.30;;;20.00;65.10;;;;;;5032256;28;20438;-48
2021/06/07 05:40:26;;;;;;;8.70;4.90;;;19.40;64.00;;;;;;5031804;28;20459;-49
2021/06/07 05:42:53;;;;;;;8.00;4.40;;;19.90;64.70;;;;;;5031992;28;20950;-48
2021/06/07 05:45:20;;;;;;;4.40;4.00;;;20.10;65.00;;;;;;5031847;28;20886;-48
2021/06/07 05:47:47;;;;;;;7.70;4.83;;;19.90;63.70;;;;;;5031139;28;20444;-49
2021/06/07 05:50:16;;;;;;;5.17;4.67;;;20.00;64.00;;;;;;5031137;28;20475;-49
2021/06/07 05:52:46;;;;;;;7.70;5.60;;;19.90;64.30;;;;;;5030419;28;20455;-49
2021/06/07 05:55:14;;;;;;;8.70;4.47;;;20.40;64.80;;;;;;5032276;28;20527;-48
2021/06/07 05:57:42;;;;;;;4.33;3.20;;;20.30;64.30;;;;;;5031997;28;20458;-49
2021/06/07 06:00:09;;;;;;;5.33;3.80;;;20.20;63.00;;;;;;5031170;28;20834;-49
2021/06/07 06:02:36;;;;;;;10.83;3.93;;;20.70;63.30;;;;;;5031424;28;20436;-49
2021/06/07 06:05:03;;;;;;;7.27;4.13;;;20.60;62.50;;;;;;5031405;28;20431;-49
2021/06/07 06:07:29;;;;;;;4.47;3.93;;;20.60;61.80;;;;;;5031710;28;20441;-49
2021/06/07 06:09:55;;;;;;;8.33;4.53;;;20.10;61.10;;;;;;5031137;28;20471;-49
2021/06/07 06:12:22;;;;;;;6.00;5.20;;;20.50;61.20;;;;;;5031644;28;20495;-50
2021/06/07 06:14:49;;;;;;;4.00;3.60;;;20.50;61.70;;;;;;5031777;28;20435;-50
2021/06/07 06:17:15;;;;;;;6.97;4.20;;;20.40;61.90;;;;;;5031939;28;20486;-50
2021/06/07 06:19:41;;;;;;;7.33;3.70;;;20.80;62.00;;;;;;5030590;28;20483;-49
2021/06/07 06:22:08;;;;;;;5.40;3.07;;;20.50;61.00;;;;;;5031412;28;20532;-49
2021/06/07 06:24:34;;;;;;;7.00;4.10;;;20.70;61.20;;;;;;5031726;28;20945;-49
2021/06/07 06:27:01;;;;;;;5.13;3.90;;;20.70;61.10;;;;;;5031715;28;20447;-49
2021/06/07 06:29:27;;;;;;;6.87;4.30;;;20.70;60.60;;;;;;5031271;28;20471;-49
2021/06/07 06:31:54;;;;;;;5.03;3.83;;;20.70;60.60;;;;;;5031359;28;20469;-49
2021/06/07 06:34:21;;;;;;;9.53;4.57;;;21.30;61.40;;;;;;5030852;28;20739;-49
2021/06/07 06:36:47;;;;;;;5.70;4.10;;;21.20;61.60;;;;;;5030938;28;20437;-49
2021/06/07 06:39:13;;;;;;;7.60;3.83;;;20.70;60.10;;;;;;5030841;28;20533;-49
2021/06/07 06:41:40;;;;;;;8.47;3.87;;;21.50;60.40;;;;;;5029326;28;20539;-49
2021/06/07 06:44:06;;;;;;;5.17;4.07;;;20.90;60.00;;;;;;5031196;28;20437;-49
2021/06/07 06:46:33;;;;;;;11.00;5.80;;;21.20;60.20;;;;;;5030835;28;20544;-49
2021/06/07 06:49:02;;;;;;;4.40;3.83;;;21.00;60.10;;;;;;5030464;28;20446;-50
2021/06/07 06:51:29;;;;;;;9.57;4.10;;;21.20;60.40;;;;;;5030726;28;20661;-48
2021/06/07 06:53:55;;;;;;;8.27;4.00;;;21.50;60.40;;;;;;5030636;28;20439;-49
2021/06/07 06:56:21;;;;;;;4.93;4.43;;;21.20;60.00;;;;;;5030989;28;20530;-49
2021/06/07 06:58:47;;;;;;;6.67;4.30;;;21.40;60.30;;;;;;5030060;28;20437;-49
2021/06/07 07:01:14;;;;;;;8.70;5.43;;;21.60;60.20;;;;;;5030382;28;20430;-49
2021/06/07 07:03:41;;;;;;;6.30;4.03;;;21.70;60.20;;;;;;5030717;28;20442;-49
2021/06/07 07:06:08;;;;;;;7.33;4.77;;;21.60;60.20;;;;;;5030746;28;20457;-49
2021/06/07 07:08:35;;;;;;;6.73;4.07;;;21.50;60.10;;;;;;5030473;28;20437;-48
2021/06/07 07:11:01;;;;;;;6.20;4.50;;;21.70;60.80;;;;;;5030645;28;20528;-49
2021/06/07 07:13:27;;;;;;;5.73;4.10;;;21.70;60.60;;;;;;5030197;28;20438;-49
2021/06/07 07:15:53;;;;;;;5.07;4.57;;;21.70;60.20;;;;;;5030723;28;20461;-49
2021/06/07 07:18:19;;;;;;;7.33;4.57;;;21.60;60.00;;;;;;5030101;28;20871;-49
2021/06/07 07:20:45;;;;;;;5.40;3.70;;;21.40;59.10;;;;;;5031121;28;20445;-49
2021/06/07 07:23:13;;;;;;;8.37;4.03;;;21.20;58.90;;;;;;5030041;28;20517;-49
2021/06/07 07:25:41;;;;;;;10.33;3.77;;;21.20;59.10;;;;;;5030144;28;20439;-49
2021/06/07 07:28:08;;;;;;;5.33;4.10;;;21.50;59.50;;;;;;5030227;28;20586;-49
2021/06/07 07:30:36;;;;;;;6.77;4.17;;;21.80;59.70;;;;;;5030144;28;20478;-49
2021/06/07 07:33:03;;;;;;;7.47;4.50;;;21.80;59.50;;;;;;5028831;28;20766;-48
2021/06/07 07:35:30;;;;;;;8.27;4.50;;;21.90;58.90;;;;;;5030303;28;20442;-49
2021/06/07 07:37:56;;;;;;;8.23;4.17;;;21.80;59.10;;;;;;5029013;28;20595;-49
2021/06/07 07:40:26;;;;;;;6.83;4.10;;;21.70;58.40;;;;;;5029845;28;20495;-49
2021/06/07 07:42:55;;;;;;;6.13;4.60;;;21.80;58.40;;;;;;5030308;28;20434;-49
2021/06/07 07:45:26;;;;;;;7.43;3.50;;;22.10;58.20;;;;;;5030180;28;20431;-49
2021/06/07 07:47:53;;;;;;;12.10;3.77;;;21.70;57.80;;;;;;5030290;28;20952;-50
2021/06/07 07:50:20;;;;;;;6.50;4.90;;;21.60;57.70;;;;;;5029530;28;20477;-49
2021/06/07 07:52:47;;;;;;;6.60;4.10;;;22.20;58.10;;;;;;5028585;28;20454;-48
2021/06/07 07:55:15;;;;;;;6.80;3.13;;;22.10;58.10;;;;;;5030108;28;20435;-50
2021/06/07 07:57:42;;;;;;;6.27;3.60;;;22.00;58.10;;;;;;5029935;28;20436;-49
2021/06/07 08:00:11;;;;;;;6.40;4.03;;;21.90;57.70;;;;;;5029753;28;20466;-49
2021/06/07 08:02:41;;;;;;;9.07;3.80;;;22.00;57.50;;;;;;5030195;28;20860;-49
2021/06/07 08:05:10;;;;;;;4.53;3.63;;;22.00;56.70;;;;;;5030147;28;20445;-49
2021/06/07 08:07:37;;;;;;;8.17;3.57;;;22.10;56.90;;;;;;5029822;28;20486;-48
2021/06/07 08:10:04;;;;;;;8.07;3.53;;;22.30;57.20;;;;;;5029335;28;20566;-49
2021/06/07 08:12:30;;;;;;;4.50;3.60;;;22.10;57.20;;;;;;5033718;28;20491;-50
2021/06/07 08:14:58;;;;;;;4.30;3.63;;;22.20;57.20;;;;;;5034033;28;20513;-48
2021/06/07 08:17:24;;;;;;;6.20;3.30;;;22.30;57.10;;;;;;5033987;28;20438;-48
2021/06/07 08:19:50;;;;;;;7.50;6.30;;;22.20;57.20;;;;;;5033458;28;20494;-48
2021/06/07 08:22:18;;;;;;;11.67;5.63;;;22.40;56.70;;;;;;5033817;28;20427;-48
2021/06/07 08:24:44;;;;;;;4.50;3.57;;;22.50;57.00;;;;;;5033629;28;20430;-48
2021/06/07 08:27:11;;;;;;;9.13;4.37;;;22.20;56.50;;;;;;5033535;28;20435;-49
2021/06/07 08:29:37;;;;;;;7.93;3.90;;;22.40;56.50;;;;;;5033539;28;20523;-49
2021/06/07 08:32:06;;;;;;;4.40;3.50;;;22.30;55.90;;;;;;5033640;28;20568;-49
2021/06/07 08:34:33;;;;;;;6.93;3.43;;;22.30;55.60;;;;;;5033888;28;20626;-49
2021/06/07 08:36:59;;;;;;;5.80;3.83;;;22.70;56.30;;;;;;5032974;28;20447;-48
2021/06/07 08:39:25;;;;;;;7.17;3.30;;;22.50;56.30;;;;;;5033146;28;20690;-49
2021/06/07 08:41:51;;;;;;;5.53;4.20;;;22.30;56.00;;;;;;5031832;28;20456;-49
2021/06/07 08:44:18;;;;;;;6.30;3.37;;;22.50;56.10;;;;;;5031917;28;20475;-49
2021/06/07 08:46:46;;;;;;;4.10;3.37;;;22.30;55.90;;;;;;5033539;28;20446;-50
2021/06/07 08:49:14;;;;;;;4.53;4.13;;;22.70;55.90;;;;;;5033056;28;20459;-49
2021/06/07 08:51:40;;;;;;;7.40;4.20;;;22.60;55.80;;;;;;5033079;28;20482;-49
2021/06/07 08:54:07;;;;;;;4.63;4.23;;;22.60;55.90;;;;;;5033415;28;20552;-49
2021/06/07 08:56:34;;;;;;;5.20;3.60;;;22.50;55.80;;;;;;5033345;28;20468;-49
2021/06/07 08:59:00;;;;;;;7.10;4.20;;;22.50;55.80;;;;;;5031351;28;20458;-53
2021/06/07 09:01:26;;;;;;;5.97;3.83;;;23.10;55.90;;;;;;5031623;28;20982;-49
2021/06/07 09:03:52;;;;;;;4.43;4.03;;;23.20;56.10;;;;;;5032697;28;20446;-49
2021/06/07 09:06:25;;;;;;;6.40;4.60;;;22.90;55.70;;;;;;5033129;28;20505;-49
2021/06/07 09:09:04;;;;;;;5.17;3.83;;;22.80;55.50;;;;;;5032731;28;20435;-49
2021/06/07 09:11:40;;;;;;;8.10;3.90;;;23.10;55.60;;;;;;5032974;28;20471;-49
2021/06/07 09:14:16;;;;;;;5.57;3.80;;;22.90;55.50;;;;;;5032404;28;20555;-49
2021/06/07 09:16:42;;;;;;;5.03;3.30;;;22.70;54.70;;;;;;5032868;28;20443;-48
2021/06/07 09:19:17;;;;;;;8.33;3.83;;;23.00;54.30;;;;;;5032221;28;20517;-48
2021/06/07 09:21:45;;;;;;;4.20;3.43;;;23.00;53.80;;;;;;5032156;28;20435;-49
2021/06/07 09:24:13;;;;;;;4.13;3.63;;;23.10;53.20;;;;;;5031719;28;20522;-49
2021/06/07 09:26:42;;;;;;;8.20;4.10;;;23.00;53.30;;;;;;5032313;28;20533;-49
2021/06/07 09:29:13;;;;;;;6.17;4.20;;;22.70;54.00;;;;;;5031875;28;20457;-49
2021/06/07 09:31:42;;;;;;;5.70;4.03;;;23.20;54.60;;;;;;5032075;28;20478;-49
2021/06/07 09:34:10;;;;;;;7.30;3.63;;;23.20;54.70;;;;;;5032438;28;20618;-48
2021/06/07 09:36:37;;;;;;;4.97;3.37;;;23.20;54.40;;;;;;5030518;28;20623;-50
2021/06/07 09:39:10;;;;;;;6.70;3.43;;;23.20;54.10;;;;;;5031827;28;20436;-50
2021/06/07 09:41:49;;;;;;;4.30;3.33;;;22.80;53.50;;;;;;5032285;28;20914;-49
2021/06/07 09:44:25;;;;;;;3.67;3.07;;;23.20;53.50;;;;;;5030773;28;20546;-50
2021/06/07 09:46:53;;;;;;;3.60;3.30;;;23.40;52.70;;;;;;5032289;28;20870;-49
2021/06/07 09:49:21;;;;;;;14.47;3.80;;;23.40;52.40;;;;;;5031677;28;20472;-49
2021/06/07 09:51:57;;;;;;;4.50;3.40;;;23.10;52.90;;;;;;5032027;28;20827;-49
2021/06/07 09:54:27;;;;;;;6.00;3.27;;;23.10;53.40;;;;;;5032123;28;20439;-49
2021/06/07 09:56:55;;;;;;;6.17;3.50;;;23.50;53.70;;;;;;5032108;28;20560;-50
2021/06/07 09:59:27;;;;;;;6.00;3.80;;;23.50;53.20;;;;;;5031460;28;20485;-50
2021/06/07 10:01:55;;;;;;;10.33;5.50;;;23.20;52.60;;;;;;5032255;28;20433;-50
2021/06/07 10:04:21;;;;;;;6.27;3.70;;;23.50;52.70;;;;;;5031839;28;20445;-50
2021/06/07 10:06:48;;;;;;;6.40;4.20;;;23.60;52.80;;;;;;5031383;28;20444;-49
2021/06/07 10:09:17;;;;;;;6.13;3.33;;;23.90;52.60;;;;;;5030759;28;20942;-49
2021/06/07 10:11:46;;;;;;;4.37;3.87;;;23.50;50.70;;;;;;5031515;28;20484;-49
2021/06/07 10:14:15;;;;;;;7.63;3.70;;;23.80;49.40;;;;;;5031685;28;20468;-49
2021/06/07 10:16:49;;;;;;;3.90;2.90;;;24.00;49.30;;;;;;5031716;28;20443;-50
2021/06/07 10:19:18;;;;;;;4.33;3.23;;;24.00;49.40;;;;;;5030929;28;20967;-48
2021/06/07 10:21:45;;;;;;;10.80;4.33;;;23.50;49.40;;;;;;5031436;28;20437;-49
2021/06/07 10:24:13;;;;;;;4.50;3.13;;;24.00;50.10;;;;;;5030060;28;20502;-49
2021/06/07 10:26:39;;;;;;;5.37;3.70;;;24.00;50.10;;;;;;5031899;28;20434;-49
2021/06/07 10:29:07;;;;;;;6.07;2.87;;;23.50;49.90;;;;;;5031381;28;20584;-48
2021/06/07 10:31:39;;;;;;;3.67;3.37;;;23.90;50.20;;;;;;5031186;28;20485;-48
2021/06/07 10:34:07;;;;;;;4.13;3.37;;;23.50;49.10;;;;;;5030952;28;20458;-48
2021/06/07 10:36:36;;;;;;;7.97;4.47;;;23.90;49.50;;;;;;5031557;28;20447;-49
2021/06/07 10:39:25;;;;;;;5.30;4.20;;;23.90;49.40;;;;;;5030605;28;20541;-49
2021/06/07 10:42:24;;;;;;;4.50;3.27;;;24.00;49.00;;;;;;5029714;28;20571;-49
2021/06/07 10:45:01;;;;;;;8.77;3.20;;;24.10;48.50;;;;;;5031173;28;20457;-51
2021/06/07 10:47:29;;;;;;;5.53;3.37;;;23.70;47.80;;;;;;5030539;28;20438;-50
2021/06/07 10:49:58;;;;;;;3.80;3.50;;;24.00;47.90;;;;;;5060560;22;20563;-47
2021/06/07 10:52:26;;;;;;;7.10;3.10;;;24.20;48.00;;;;;;5052058;28;20499;-49
2021/06/07 10:54:58;;;;;;;3.30;3.00;;;24.20;48.20;;;;;;5052273;28;20477;-48
2021/06/07 10:57:33;;;;;;;3.87;3.53;;;24.30;48.40;;;;;;5051986;28;20467;-49
2021/06/07 11:00:04;;;;;;;3.20;2.90;;;24.30;47.60;;;;;;5051428;28;20991;-49
2021/06/07 11:02:34;;;;;;;5.73;3.33;;;24.00;47.30;;;;;;5052103;28;20424;-48
2021/06/07 11:05:03;;;;;;;4.43;3.70;;;24.00;47.60;;;;;;5052529;28;20488;-49
2021/06/07 11:07:30;;;;;;;5.17;2.80;;;24.20;48.40;;;;;;5052753;28;20437;-48
2021/06/07 11:10:22;;;;;;;4.80;3.60;;;24.40;48.60;;;;;;5052031;28;20957;-48
2021/06/07 11:12:50;;;;;;;3.87;3.30;;;24.20;48.30;;;;;;5052273;28;20476;-50
2021/06/07 11:15:21;;;;;;;3.13;2.70;;;24.10;47.10;;;;;;5053012;28;20437;-50
2021/06/07 11:17:49;;;;;;;3.20;2.73;;;24.20;46.40;;;;;;5052562;28;20430;-49
2021/06/07 11:20:31;;;;;;;6.50;3.50;;;24.30;46.00;;;;;;5051864;28;20545;-50
2021/06/07 11:23:11;;;;;;;6.87;3.00;;;24.40;46.30;;;;;;5052959;28;20469;-50
2021/06/07 11:25:44;;;;;;;3.40;3.10;;;24.40;46.10;;;;;;5050923;28;20451;-49
2021/06/07 11:28:42;;;;;;;6.90;3.50;;;24.20;46.10;;;;;;5051413;28;20935;-47
2021/06/07 11:31:51;;;;;;;4.97;3.40;;;24.30;46.50;;;;;;5008895;28;20661;-48
2021/06/07 11:34:44;;;;;;;4.33;3.50;;;24.40;46.60;;;;;;5051531;28;20443;-49
2021/06/07 11:37:12;;;;;;;4.03;3.13;;;24.50;47.10;;;;;;5051349;28;20522;-48
2021/06/07 11:39:51;;;;;;;4.33;3.20;;;24.50;46.00;;;;;;5050385;28;20465;-47
2021/06/07 11:42:19;;;;;;;3.50;3.20;;;24.40;45.80;;;;;;5052091;28;20528;-50
2021/06/07 11:44:50;;;;;;;5.70;4.10;;;24.60;46.20;;;;;;5051429;28;20862;-50
2021/06/07 11:47:18;;;;;;;6.03;3.30;;;24.40;46.10;;;;;;5050797;28;20442;-48
2021/06/07 11:50:09;;;;;;;4.40;3.47;;;24.50;46.50;;;;;;5050325;28;20470;-48
2021/06/07 11:52:53;;;;;;;3.77;3.47;;;24.50;46.20;;;;;;5050617;28;20568;-48
2021/06/07 11:55:23;;;;;;;4.67;3.60;;;24.60;47.00;;;;;;5050012;28;20512;-50
2021/06/07 11:57:50;;;;;;;4.50;4.10;;;24.90;45.70;;;;;;5050761;28;20442;-48
2021/06/07 12:00:19;;;;;;;4.17;2.83;;;24.90;45.50;;;;;;5049204;28;20563;-48
2021/06/07 12:02:46;;;;;;;3.23;2.93;;;24.80;44.80;;;;;;5050417;28;20431;-50
2021/06/07 12:05:16;;;;;;;5.97;3.53;;;24.50;45.10;;;;;;5050967;28;20476;-48
2021/06/07 12:07:45;;;;;;;4.03;3.13;;;24.60;44.80;;;;;;5050904;28;20558;-48
2021/06/07 12:10:14;;;;;;;5.83;3.40;;;24.90;45.50;;;;;;5049964;28;20462;-48
2021/06/07 12:12:40;;;;;;;6.13;3.40;;;24.60;45.90;;;;;;5050541;28;20486;-48
2021/06/07 12:15:12;;;;;;;7.23;3.30;;;25.00;45.50;;;;;;5051168;28;20446;-48
2021/06/07 12:17:43;;;;;;;6.70;3.77;;;24.90;45.60;;;;;;5052678;28;20431;-48
2021/06/07 12:20:11;;;;;;;3.23;2.93;;;25.00;45.70;;;;;;5051412;28;20454;-48
2021/06/07 12:22:41;;;;;;;5.20;3.47;;;25.10;45.20;;;;;;5051634;28;20803;-49
2021/06/07 12:25:27;;;;;;;5.27;3.60;;;25.00;45.00;;;;;;5050086;28;20426;-48
2021/06/07 12:30:41;;;;;;;3.70;3.07;;;25.10;43.40;;;;;;5050225;28;20464;-48
2021/06/07 12:33:07;;;;;;;4.03;3.10;;;24.80;41.40;;;;;;5049957;28;20975;-47
2021/06/07 12:35:36;;;;;;;5.23;3.13;;;25.20;42.40;;;;;;5050375;28;20527;-47
2021/06/07 12:38:05;;;;;;;7.27;3.20;;;24.90;43.00;;;;;;5048963;28;20462;-50
2021/06/07 12:40:34;;;;;;;7.50;3.50;;;25.00;43.60;;;;;;5050584;28;20493;-49
2021/06/07 12:43:15;;;;;;;4.33;3.90;;;25.10;43.90;;;;;;5050890;28;20487;-50
2021/06/07 12:45:44;;;;;;;3.73;3.40;;;25.10;44.10;;;;;;5050663;28;20605;-47
2021/06/07 12:48:13;;;;;;;4.10;3.70;;;25.20;44.30;;;;;;5051239;28;20466;-47
2021/06/07 12:50:41;;;;;;;3.67;3.20;;;25.20;44.20;;;;;;5050035;28;20573;-48
2021/06/07 12:53:09;;;;;;;10.53;4.73;;;25.30;43.90;;;;;;5050621;28;20483;-49
2021/06/07 12:55:37;;;;;;;3.57;3.27;;;25.10;43.80;;;;;;5052805;28;20525;-48